Time;durP1;ratioP1;P1;durP2;ratioP2;P2;SDS_P1;SDS_P2;PMS_P1;PMS_P2;Temp;Humidity;BMP_temperature;BMP_pressure;BME280_temperature;BME280_humidity;BME280_pressure;Samples;Min_cycle;Max_cycle;Signal;HPM_P1;HPM_P2
2022/02/13 00:02:39;;;;;;;15.57;9.23;;;;;;;;;;6301833;28;20090;-65
2022/02/13 00:05:41;;;;;;;15.63;9.20;;;;;;;;;;6303250;28;20075;-65
2022/02/13 00:08:42;;;;;;;19.73;9.38;;;;;;;;;;6304323;28;20485;-65
2022/02/13 00:11:44;;;;;;;15.40;8.75;;;;;;;;;;6303245;28;20499;-65
2022/02/13 00:14:47;;;;;;;13.82;8.18;;;;;;;;;;6302671;28;20127;-64
2022/02/13 00:17:49;;;;;;;15.85;8.77;;;;;;;;;;6302919;28;20396;-64
2022/02/13 00:20:50;;;;;;;20.10;8.93;;;;;;;;;;6301983;28;20146;-64
2022/02/13 00:23:52;;;;;;;16.40;8.88;;;;;;;;;;6304243;28;20120;-64
2022/02/13 00:26:53;;;;;;;13.18;8.48;;;;;;;;;;6312694;28;20135;-66
2022/02/13 00:29:56;;;;;;;12.90;7.80;;;;;;;;;;6313955;28;20064;-65
2022/02/13 00:32:58;;;;;;;13.23;8.80;;;;;;;;;;6307308;28;20175;-64
2022/02/13 00:35:59;;;;;;;19.50;9.38;;;;;;;;;;6304654;28;20127;-63
2022/02/13 00:39:01;;;;;;;17.10;11.20;;;;;;;;;;6304756;28;20051;-64
2022/02/13 00:42:03;;;;;;;14.88;8.25;;;;;;;;;;6307261;28;20131;-63
2022/02/13 00:45:09;;;;;;;12.18;7.78;;;;;;;;;;6297222;28;20506;-65
2022/02/13 00:48:11;;;;;;;11.57;7.65;;;;;;;;;;6300323;28;20109;-64
2022/02/13 00:51:13;;;;;;;12.10;7.55;;;;;;;;;;6300860;28;20051;-64
2022/02/13 00:54:14;;;;;;;15.48;7.72;;;;;;;;;;6300464;28;20139;-64
2022/02/13 00:57:16;;;;;;;16.55;8.65;;;;;;;;;;6302165;28;20049;-64
2022/02/13 01:00:19;;;;;;;17.85;8.35;;;;;;;;;;6303123;28;20131;-63
2022/02/13 01:03:21;;;;;;;15.43;8.63;;;;;;;;;;6294103;28;20340;-64
2022/02/13 01:06:24;;;;;;;12.27;7.88;;;;;;;;;;6298617;28;20137;-63
2022/02/13 01:09:27;;;;;;;13.85;7.70;;;;;;;;;;6298087;28;20059;-64
2022/02/13 01:12:28;;;;;;;12.10;7.47;;;;;;;;;;6305711;28;20060;-64
2022/02/13 01:15:32;;;;;;;13.60;7.57;;;;;;;;;;6302078;28;20155;-64
2022/02/13 01:18:33;;;;;;;12.13;7.60;;;;;;;;;;6297934;28;20682;-64
2022/02/13 01:21:35;;;;;;;12.40;7.10;;;;;;;;;;6296242;28;20688;-64
2022/02/13 01:24:37;;;;;;;12.13;7.35;;;;;;;;;;6297608;28;20075;-65
2022/02/13 01:27:38;;;;;;;13.93;6.93;;;;;;;;;;6296726;28;20048;-65
2022/02/13 01:30:41;;;;;;;11.50;7.20;;;;;;;;;;6300526;28;20072;-65
2022/02/13 01:33:43;;;;;;;12.00;6.72;;;;;;;;;;6312253;28;20121;-65
2022/02/13 01:36:45;;;;;;;14.73;7.10;;;;;;;;;;6310616;28;20185;-66
2022/02/13 01:39:47;;;;;;;10.95;6.55;;;;;;;;;;6310791;28;20456;-65
2022/02/13 01:42:48;;;;;;;12.75;7.30;;;;;;;;;;6309472;28;20173;-65
2022/02/13 01:45:51;;;;;;;12.15;7.22;;;;;;;;;;6300215;28;20075;-65
2022/02/13 01:48:53;;;;;;;9.35;6.68;;;;;;;;;;6303357;28;20598;-64
2022/02/13 01:51:57;;;;;;;10.95;6.88;;;;;;;;;;6307539;28;20607;-65
2022/02/13 01:54:59;;;;;;;12.88;6.75;;;;;;;;;;6306226;28;20083;-65
2022/02/13 01:58:00;;;;;;;11.20;6.65;;;;;;;;;;6302017;28;20066;-66
2022/02/13 02:01:03;;;;;;;12.07;6.95;;;;;;;;;;6306251;28;20519;-65
2022/02/13 02:04:05;;;;;;;13.70;6.70;;;;;;;;;;6304196;28;20135;-64
2022/02/13 02:07:07;;;;;;;10.98;6.40;;;;;;;;;;6300513;28;20060;-65
2022/02/13 02:10:09;;;;;;;9.00;6.13;;;;;;;;;;6304426;28;20171;-65
2022/02/13 02:13:13;;;;;;;7.45;5.57;;;;;;;;;;6302031;28;20194;-64
2022/02/13 02:16:16;;;;;;;9.63;6.05;;;;;;;;;;6304341;28;20083;-65
2022/02/13 02:19:18;;;;;;;11.40;5.78;;;;;;;;;;6313306;28;20127;-65
2022/02/13 02:22:19;;;;;;;14.50;6.15;;;;;;;;;;6315815;28;20132;-65
2022/02/13 02:25:23;;;;;;;11.25;6.40;;;;;;;;;;6307987;28;20131;-64
2022/02/13 02:28:24;;;;;;;12.40;6.75;;;;;;;;;;6304089;28;20048;-65
2022/02/13 02:31:26;;;;;;;10.38;5.90;;;;;;;;;;6299929;28;20037;-63
2022/02/13 02:34:28;;;;;;;8.95;5.97;;;;;;;;;;6305822;28;20075;-64
2022/02/13 02:37:29;;;;;;;10.30;6.57;;;;;;;;;;6305215;28;20145;-65
2022/02/13 02:40:32;;;;;;;9.98;6.10;;;;;;;;;;6309040;28;20133;-67
2022/02/13 02:43:34;;;;;;;12.52;6.47;;;;;;;;;;6303681;28;20064;-63
2022/02/13 02:46:35;;;;;;;10.38;6.70;;;;;;;;;;6300338;28;20135;-63
2022/02/13 02:49:37;;;;;;;10.95;6.50;;;;;;;;;;6302668;28;20059;-63
2022/02/13 02:52:39;;;;;;;9.43;6.55;;;;;;;;;;6302064;28;20063;-63
2022/02/13 02:55:41;;;;;;;10.60;6.60;;;;;;;;;;6307052;28;22058;-62
2022/02/13 02:58:43;;;;;;;11.60;6.28;;;;;;;;;;6305596;28;20169;-62
2022/02/13 03:01:45;;;;;;;11.43;6.63;;;;;;;;;;6304078;28;20415;-66
2022/02/13 03:04:47;;;;;;;10.45;5.72;;;;;;;;;;6303413;28;20563;-62
2022/02/13 03:07:48;;;;;;;10.00;6.22;;;;;;;;;;6302566;28;20104;-63
2022/02/13 03:10:52;;;;;;;11.65;6.88;;;;;;;;;;6302003;28;20517;-62
2022/02/13 03:13:53;;;;;;;12.82;6.60;;;;;;;;;;6297977;28;20146;-65
2022/02/13 03:16:55;;;;;;;12.70;6.70;;;;;;;;;;6299784;28;20127;-62
2022/02/13 03:19:56;;;;;;;12.88;6.55;;;;;;;;;;6302973;28;20048;-63
2022/02/13 03:22:58;;;;;;;11.68;6.55;;;;;;;;;;6301893;28;20122;-63
2022/02/13 03:26:01;;;;;;;12.77;6.25;;;;;;;;;;6304171;28;20113;-63
2022/02/13 03:29:03;;;;;;;9.60;5.72;;;;;;;;;;6309946;28;20048;-63
2022/02/13 03:32:06;;;;;;;9.50;5.80;;;;;;;;;;6298338;28;20091;-62
2022/02/13 03:35:08;;;;;;;12.45;5.97;;;;;;;;;;6305938;28;20145;-63
2022/02/13 03:38:09;;;;;;;8.20;5.88;;;;;;;;;;6307828;28;20182;-63
2022/02/13 03:41:12;;;;;;;9.25;5.35;;;;;;;;;;6305235;28;20500;-63
2022/02/13 03:44:14;;;;;;;10.15;5.72;;;;;;;;;;6303222;28;20384;-63
2022/02/13 03:47:16;;;;;;;13.20;6.15;;;;;;;;;;6302358;28;20114;-63
2022/02/13 03:50:18;;;;;;;8.60;5.57;;;;;;;;;;6304418;28;20503;-63
2022/02/13 03:53:19;;;;;;;10.95;5.80;;;;;;;;;;6306330;28;20626;-63
2022/02/13 03:56:22;;;;;;;10.05;5.85;;;;;;;;;;6299681;28;20460;-64
2022/02/13 03:59:24;;;;;;;13.20;6.38;;;;;;;;;;6300173;28;20507;-63
2022/02/13 04:02:25;;;;;;;14.88;6.15;;;;;;;;;;6306302;28;20131;-63
2022/02/13 04:05:27;;;;;;;8.10;5.85;;;;;;;;;;6301877;28;20113;-63
2022/02/13 04:08:28;;;;;;;10.27;5.53;;;;;;;;;;6302027;28;20079;-63
2022/02/13 04:11:31;;;;;;;10.38;5.45;;;;;;;;;;6302916;28;20044;-63
2022/02/13 04:14:33;;;;;;;7.88;5.22;;;;;;;;;;6298454;28;20245;-63
2022/02/13 04:17:35;;;;;;;8.15;5.10;;;;;;;;;;6299841;28;20045;-64
2022/02/13 04:20:36;;;;;;;9.68;5.72;;;;;;;;;;6301661;28;20606;-63
2022/02/13 04:23:38;;;;;;;10.35;5.50;;;;;;;;;;6301315;28;20048;-62
2022/02/13 04:26:41;;;;;;;8.15;5.68;;;;;;;;;;6301161;28;20170;-64
2022/02/13 04:29:43;;;;;;;8.73;6.05;;;;;;;;;;6300427;28;20059;-63
2022/02/13 04:32:44;;;;;;;8.70;5.60;;;;;;;;;;6302197;28;20052;-64
2022/02/13 04:35:47;;;;;;;10.35;5.53;;;;;;;;;;6303871;28;20115;-63
2022/02/13 04:38:48;;;;;;;8.40;5.30;;;;;;;;;;6304781;28;20123;-63
2022/02/13 04:41:51;;;;;;;9.60;4.97;;;;;;;;;;6299619;28;20060;-63
2022/02/13 04:44:53;;;;;;;7.60;4.78;;;;;;;;;;6302329;28;20132;-63
2022/02/13 04:47:54;;;;;;;7.65;4.95;;;;;;;;;;6305790;28;20131;-63
2022/02/13 04:50:56;;;;;;;7.68;4.78;;;;;;;;;;6302205;28;20056;-63
2022/02/13 04:53:57;;;;;;;9.35;5.05;;;;;;;;;;6304091;28;20548;-63
2022/02/13 04:57:01;;;;;;;8.82;5.82;;;;;;;;;;6301956;28;20077;-63
2022/02/13 05:00:04;;;;;;;8.07;5.15;;;;;;;;;;6304781;28;20052;-63
2022/02/13 05:03:05;;;;;;;8.98;5.28;;;;;;;;;;6305333;28;20507;-64
2022/02/13 05:06:07;;;;;;;8.63;4.82;;;;;;;;;;6305900;28;20105;-65
2022/02/13 05:09:10;;;;;;;7.35;5.13;;;;;;;;;;6310151;28;20634;-64
2022/02/13 05:12:13;;;;;;;7.97;4.80;;;;;;;;;;6308894;28;20062;-63
2022/02/13 05:15:16;;;;;;;10.07;5.57;;;;;;;;;;6304828;28;20122;-64
2022/02/13 05:18:17;;;;;;;7.93;4.78;;;;;;;;;;6301557;28;20466;-64
2022/02/13 05:21:19;;;;;;;7.60;4.78;;;;;;;;;;6305454;28;20156;-63
2022/02/13 05:24:20;;;;;;;6.32;4.68;;;;;;;;;;6305201;28;20111;-63
2022/02/13 05:27:23;;;;;;;7.28;4.10;;;;;;;;;;6305548;28;20070;-64
2022/02/13 05:30:25;;;;;;;9.63;5.22;;;;;;;;;;6302642;28;20135;-63
2022/02/13 05:33:26;;;;;;;7.43;5.22;;;;;;;;;;6302629;28;20052;-64
2022/02/13 05:36:28;;;;;;;8.25;5.07;;;;;;;;;;6305196;28;20462;-63
2022/02/13 05:39:30;;;;;;;8.95;4.78;;;;;;;;;;6302698;28;20173;-63
2022/02/13 05:42:33;;;;;;;9.10;4.95;;;;;;;;;;6303962;28;20045;-63
2022/02/13 05:45:34;;;;;;;8.18;5.22;;;;;;;;;;6301312;28;20052;-64
2022/02/13 05:48:36;;;;;;;7.85;4.75;;;;;;;;;;6300890;28;20131;-64
2022/02/13 05:51:37;;;;;;;9.00;4.90;;;;;;;;;;6303149;28;20125;-63
2022/02/13 05:54:39;;;;;;;8.65;5.00;;;;;;;;;;6303166;28;20443;-63
2022/02/13 05:57:45;;;;;;;9.73;5.22;;;;;;;;;;6303031;28;20492;-63
2022/02/13 06:00:47;;;;;;;8.90;4.93;;;;;;;;;;6300238;28;20149;-64
2022/02/13 06:03:48;;;;;;;6.55;4.65;;;;;;;;;;6301567;28;20578;-65
2022/02/13 06:06:50;;;;;;;9.57;5.22;;;;;;;;;;6305078;28;20068;-64
2022/02/13 06:09:52;;;;;;;8.48;5.03;;;;;;;;;;6307087;28;20178;-63
2022/02/13 06:12:55;;;;;;;9.63;5.63;;;;;;;;;;6306065;28;20067;-63
2022/02/13 06:15:57;;;;;;;8.80;5.15;;;;;;;;;;6311113;28;20040;-63
2022/02/13 06:18:58;;;;;;;7.80;4.80;;;;;;;;;;6304590;28;20056;-63
2022/02/13 06:22:00;;;;;;;8.30;4.80;;;;;;;;;;6303074;28;20086;-63
2022/02/13 06:25:01;;;;;;;8.98;5.22;;;;;;;;;;6306751;28;20193;-63
2022/02/13 06:28:05;;;;;;;7.65;5.05;;;;;;;;;;6307680;28;20040;-63
2022/02/13 06:31:06;;;;;;;9.07;5.63;;;;;;;;;;6308937;28;20139;-63
2022/02/13 06:34:08;;;;;;;9.80;5.32;;;;;;;;;;6309367;28;20128;-63
2022/02/13 06:37:10;;;;;;;7.22;5.10;;;;;;;;;;6306265;28;20126;-63
2022/02/13 06:40:12;;;;;;;8.65;5.53;;;;;;;;;;6309663;28;20123;-63
2022/02/13 06:43:15;;;;;;;9.65;5.55;;;;;;;;;;6304619;28;20212;-63
2022/02/13 06:46:17;;;;;;;10.73;5.25;;;;;;;;;;6308326;28;20124;-63
2022/02/13 06:49:18;;;;;;;9.77;5.20;;;;;;;;;;6307188;28;20055;-63
2022/02/13 06:52:20;;;;;;;7.43;4.95;;;;;;;;;;6306776;28;20178;-63
2022/02/13 06:55:22;;;;;;;7.38;5.32;;;;;;;;;;6307586;28;20124;-63
2022/02/13 06:58:25;;;;;;;12.10;5.75;;;;;;;;;;6305716;28;20051;-64
2022/02/13 07:01:26;;;;;;;8.05;5.05;;;;;;;;;;6304449;28;20044;-63
2022/02/13 07:04:28;;;;;;;8.75;5.25;;;;;;;;;;6310650;28;20074;-63
2022/02/13 07:07:29;;;;;;;8.25;5.30;;;;;;;;;;6310987;28;20119;-63
2022/02/13 07:10:31;;;;;;;9.68;4.85;;;;;;;;;;6313292;28;20183;-65
2022/02/13 07:13:35;;;;;;;8.00;4.97;;;;;;;;;;6311283;28;20044;-63
2022/02/13 07:16:37;;;;;;;8.40;4.82;;;;;;;;;;6311173;28;20106;-63
2022/02/13 07:19:38;;;;;;;8.10;5.57;;;;;;;;;;6310168;28;20048;-63
2022/02/13 07:22:40;;;;;;;7.82;5.07;;;;;;;;;;6306752;28;20055;-65
2022/02/13 07:25:41;;;;;;;8.18;4.90;;;;;;;;;;6297498;28;20506;-65
2022/02/13 07:29:02;;;;;;;8.63;5.38;;;;;;;;;;6299300;28;20170;-63
2022/02/13 07:32:05;;;;;;;7.47;5.03;;;;;;;;;;6300169;28;20173;-63
2022/02/13 07:35:07;;;;;;;8.48;5.07;;;;;;;;;;6301184;28;20128;-64
2022/02/13 07:38:08;;;;;;;7.28;4.95;;;;;;;;;;6301294;28;20101;-64
2022/02/13 07:41:10;;;;;;;7.57;5.45;;;;;;;;;;6302703;28;20127;-64
2022/02/13 07:44:13;;;;;;;9.43;5.53;;;;;;;;;;6298505;28;20087;-63
2022/02/13 07:47:15;;;;;;;8.80;5.05;;;;;;;;;;6297460;28;20127;-63
2022/02/13 07:50:16;;;;;;;7.05;5.40;;;;;;;;;;6299683;28;20147;-64
2022/02/13 07:53:18;;;;;;;8.82;5.35;;;;;;;;;;6300360;28;20048;-64
2022/02/13 07:56:20;;;;;;;9.02;6.18;;;;;;;;;;6306201;28;20040;-65
2022/02/13 07:59:23;;;;;;;11.52;6.45;;;;;;;;;;6303900;28;20051;-64
2022/02/13 08:02:26;;;;;;;10.95;5.70;;;;;;;;;;6305049;28;20487;-65
2022/02/13 08:05:28;;;;;;;9.60;6.05;;;;;;;;;;6297681;28;20123;-66
2022/02/13 08:08:29;;;;;;;10.90;6.05;;;;;;;;;;6298352;28;20563;-62
2022/02/13 08:11:31;;;;;;;10.40;6.63;;;;;;;;;;6303725;28;20052;-64
2022/02/13 08:14:34;;;;;;;8.82;6.05;;;;;;;;;;6306757;28;20113;-64
2022/02/13 08:17:35;;;;;;;8.60;5.43;;;;;;;;;;6305156;28;20167;-63
2022/02/13 08:20:37;;;;;;;10.00;6.05;;;;;;;;;;6303910;28;20129;-63
2022/02/13 08:23:40;;;;;;;10.23;5.85;;;;;;;;;;6301416;28;20555;-64
2022/02/13 08:26:41;;;;;;;10.35;5.60;;;;;;;;;;6301435;28;20427;-64
2022/02/13 08:29:47;;;;;;;9.45;5.90;;;;;;;;;;6295949;28;20123;-63
2022/02/13 08:32:48;;;;;;;12.90;6.07;;;;;;;;;;6306914;28;20052;-65
2022/02/13 08:35:50;;;;;;;9.02;6.28;;;;;;;;;;6308764;28;20124;-62
2022/02/13 08:38:52;;;;;;;6.50;4.93;;;;;;;;;;6306317;28;20094;-63
2022/02/13 08:41:53;;;;;;;9.55;5.60;;;;;;;;;;6305758;28;20255;-62
2022/02/13 08:44:56;;;;;;;10.77;5.88;;;;;;;;;;6301297;28;20197;-62
2022/02/13 08:47:58;;;;;;;9.18;5.45;;;;;;;;;;6305654;28;20175;-62
2022/02/13 08:51:00;;;;;;;9.90;6.03;;;;;;;;;;6307116;28;20060;-62
2022/02/13 08:54:01;;;;;;;7.72;5.15;;;;;;;;;;6306892;28;20128;-62
2022/02/13 08:57:03;;;;;;;8.02;5.18;;;;;;;;;;6305402;28;20138;-62
2022/02/13 09:00:07;;;;;;;6.90;5.05;;;;;;;;;;6304330;28;20508;-62
2022/02/13 09:03:09;;;;;;;;;;;;;;;;;;6309356;28;20223;-63
2022/02/13 09:06:10;;;;;;;9.13;5.60;;;;;;;;;;6306449;28;20410;-62
2022/02/13 09:09:12;;;;;;;8.50;5.07;;;;;;;;;;6307654;28;20135;-62
2022/02/13 09:12:19;;;;;;;8.55;4.82;;;;;;;;;;6305265;28;20058;-64
2022/02/13 09:15:22;;;;;;;7.40;5.00;;;;;;;;;;6307165;28;20058;-62
2022/02/13 09:18:23;;;;;;;7.00;5.07;;;;;;;;;;6316019;28;20177;-62
2022/02/13 09:21:25;;;;;;;8.15;5.30;;;;;;;;;;6316854;28;20462;-62
2022/02/13 09:24:27;;;;;;;8.35;5.35;;;;;;;;;;6306489;28;20187;-64
2022/02/13 09:27:29;;;;;;;6.93;4.57;;;;;;;;;;6313014;28;20046;-64
2022/02/13 09:30:32;;;;;;;7.13;4.75;;;;;;;;;;6306184;28;20131;-64
2022/02/13 09:33:33;;;;;;;8.00;4.68;;;;;;;;;;6309285;28;20044;-64
2022/02/13 09:36:35;;;;;;;6.15;4.40;;;;;;;;;;6316741;28;20090;-63
2022/02/13 09:39:37;;;;;;;8.70;4.82;;;;;;;;;;6304060;28;20074;-63
2022/02/13 09:42:40;;;;;;;6.47;4.47;;;;;;;;;;6305649;28;20139;-65
2022/02/13 09:45:45;;;;;;;7.35;4.68;;;;;;;;;;6306183;28;20125;-64
2022/02/13 09:48:47;;;;;;;4.95;4.00;;;;;;;;;;6301093;28;20044;-62
2022/02/13 09:51:48;;;;;;;6.97;4.30;;;;;;;;;;6310061;28;20048;-62
2022/02/13 09:54:50;;;;;;;10.05;4.57;;;;;;;;;;6306233;28;20045;-62
2022/02/13 09:58:02;;;;;;;6.40;4.45;;;;;;;;;;6302458;28;20245;-64
2022/02/13 10:01:07;;;;;;;6.78;4.35;;;;;;;;;;6309290;28;20054;-65
2022/02/13 10:04:09;;;;;;;7.50;4.53;;;;;;;;;;6304225;28;20139;-63
2022/02/13 10:07:17;;;;;;;7.07;4.50;;;;;;;;;;6302717;28;20114;-63
2022/02/13 10:10:18;;;;;;;5.80;4.15;;;;;;;;;;6306055;28;20140;-63
2022/02/13 10:13:20;;;;;;;5.72;4.47;;;;;;;;;;6304324;28;20133;-63
2022/02/13 10:16:25;;;;;;;5.88;4.20;;;;;;;;;;6307356;28;20104;-65
2022/02/13 10:19:26;;;;;;;7.03;4.80;;;;;;;;;;6304700;28;20459;-63
2022/02/13 10:22:36;;;;;;;7.05;4.20;;;;;;;;;;6309648;28;20567;-64
2022/02/13 10:25:39;;;;;;;7.32;4.55;;;;;;;;;;6312528;28;20393;-63
2022/02/13 10:28:55;;;;;;;7.55;5.00;;;;;;;;;;6304615;28;20503;-65
2022/02/13 10:32:09;;;;;;;7.32;4.78;;;;;;;;;;6305368;28;20047;-64
2022/02/13 10:35:15;;;;;;;5.20;4.57;;;;;;;;;;6306503;28;20174;-63
2022/02/13 10:38:16;;;;;;;5.60;4.57;;;;;;;;;;6306086;28;20590;-64
2022/02/13 10:41:20;;;;;;;7.22;5.03;;;;;;;;;;6306711;28;20107;-65
2022/02/13 10:44:28;;;;;;;;;;;;;;;;;;6303968;28;20067;-62
2022/02/13 10:47:32;;;;;;;8.00;5.13;;;;;;;;;;6301356;28;19924;-64
2022/02/13 10:50:36;;;;;;;6.55;4.70;;;;;;;;;;6302703;28;20053;-62
2022/02/13 10:53:37;;;;;;;;;;;;;;;;;;6300295;28;20131;-62
2022/02/13 10:56:39;;;;;;;5.78;4.60;;;;;;;;;;6299250;28;19948;-64
2022/02/13 10:59:41;;;;;;;8.73;4.93;;;;;;;;;;6299677;28;20075;-65
2022/02/13 11:02:45;;;;;;;6.68;5.13;;;;;;;;;;6302124;28;20080;-64
2022/02/13 11:05:49;;;;;;;6.30;4.47;;;;;;;;;;6302103;28;20182;-65
2022/02/13 11:08:55;;;;;;;6.00;4.95;;;;;;;;;;6302959;28;20104;-64
2022/02/13 11:11:58;;;;;;;6.38;4.65;;;;;;;;;;6298775;28;20514;-65
2022/02/13 11:15:14;;;;;;;6.05;4.45;;;;;;;;;;6295738;28;20052;-65
2022/02/13 11:18:21;;;;;;;7.13;4.40;;;;;;;;;;6300157;28;20451;-64
2022/02/13 11:21:23;;;;;;;5.20;4.30;;;;;;;;;;6301550;28;20122;-64
2022/02/13 11:24:25;;;;;;;5.50;4.45;;;;;;;;;;6305536;28;20063;-64
2022/02/13 11:27:28;;;;;;;5.03;4.05;;;;;;;;;;6298821;28;20130;-65
2022/02/13 11:30:43;;;;;;;6.23;4.53;;;;;;;;;;6301047;28;20048;-65
2022/02/13 11:33:46;;;;;;;7.72;4.55;;;;;;;;;;6297131;28;20442;-64
2022/02/13 11:36:49;;;;;;;6.13;4.70;;;;;;;;;;6300014;28;20153;-64
2022/02/13 11:39:51;;;;;;;5.70;4.40;;;;;;;;;;6297956;28;20044;-64
2022/02/13 11:42:52;;;;;;;5.88;4.60;;;;;;;;;;6297806;28;20115;-64
2022/02/13 11:45:54;;;;;;;6.50;4.55;;;;;;;;;;6300458;28;20058;-64
2022/02/13 11:48:59;;;;;;;4.80;4.15;;;;;;;;;;6300675;28;20438;-64
2022/02/13 11:52:01;;;;;;;6.25;4.25;;;;;;;;;;6297648;28;20137;-64
2022/02/13 11:55:05;;;;;;;5.18;4.20;;;;;;;;;;6300105;28;20448;-64
2022/02/13 11:58:11;;;;;;;5.00;4.22;;;;;;;;;;6298591;28;20145;-64
2022/02/13 12:01:41;;;;;;;5.50;4.00;;;;;;;;;;6297692;28;20110;-64
2022/02/13 12:05:16;;;;;;;6.70;4.60;;;;;;;;;;6304277;28;20146;-63
2022/02/13 12:08:22;;;;;;;6.38;4.35;;;;;;;;;;6304984;28;20044;-63
2022/02/13 12:11:29;;;;;;;5.38;4.60;;;;;;;;;;6303864;28;20056;-63
2022/02/13 12:14:31;;;;;;;6.88;4.38;;;;;;;;;;6301163;28;20068;-64
2022/02/13 12:17:33;;;;;;;5.85;4.68;;;;;;;;;;6301394;28;20131;-64
2022/02/13 12:20:36;;;;;;;6.18;4.80;;;;;;;;;;6300543;28;20083;-65
2022/02/13 12:23:38;;;;;;;7.45;4.80;;;;;;;;;;6296149;28;20458;-67
2022/02/13 12:26:41;;;;;;;6.13;4.88;;;;;;;;;;6300654;28;20178;-64
2022/02/13 12:29:51;;;;;;;4.57;4.03;;;;;;;;;;6296962;28;20499;-65
2022/02/13 12:32:57;;;;;;;7.60;4.70;;;;;;;;;;6297864;28;21008;-66
2022/02/13 12:36:00;;;;;;;8.32;4.75;;;;;;;;;;6299719;28;20048;-66
2022/02/13 12:39:01;;;;;;;7.63;5.30;;;;;;;;;;6305502;28;20521;-66
2022/02/13 12:42:03;;;;;;;5.85;4.57;;;;;;;;;;6311046;28;20465;-66
2022/02/13 12:45:08;;;;;;;6.63;5.47;;;;;;;;;;6305364;28;20135;-66
2022/02/13 12:48:11;;;;;;;7.45;6.03;;;;;;;;;;6301043;28;20048;-66
2022/02/13 12:51:14;;;;;;;6.82;5.47;;;;;;;;;;6297898;28;20593;-67
2022/02/13 12:54:16;;;;;;;8.20;5.20;;;;;;;;;;6302120;28;20048;-67
2022/02/13 12:57:19;;;;;;;5.78;5.15;;;;;;;;;;6301827;28;20511;-68
2022/02/13 13:00:22;;;;;;;7.38;4.57;;;;;;;;;;6306223;28;20048;-68
2022/02/13 13:03:27;;;;;;;8.43;5.07;;;;;;;;;;6303904;28;20123;-66
2022/02/13 13:06:32;;;;;;;8.05;5.38;;;;;;;;;;6307823;28;20186;-67
2022/02/13 13:09:34;;;;;;;6.57;5.50;;;;;;;;;;6310407;28;20039;-67
2022/02/13 13:12:35;;;;;;;6.78;5.60;;;;;;;;;;6310146;28;20169;-66
2022/02/13 13:15:37;;;;;;;6.07;5.38;;;;;;;;;;6300473;28;20068;-67
2022/02/13 13:18:41;;;;;;;7.25;5.80;;;;;;;;;;6308405;28;20197;-68
2022/02/13 13:21:44;;;;;;;7.13;6.10;;;;;;;;;;6303286;28;20082;-65
2022/02/13 13:24:47;;;;;;;8.45;6.50;;;;;;;;;;6306148;28;20594;-66
2022/02/13 13:28:05;;;;;;;7.50;6.33;;;;;;;;;;6304428;28;20102;-65
2022/02/13 13:31:08;;;;;;;9.05;6.43;;;;;;;;;;6302329;28;20093;-63
2022/02/13 13:34:10;;;;;;;9.65;6.32;;;;;;;;;;6304869;28;20052;-63
2022/02/13 13:37:30;;;;;;;8.95;6.68;;;;;;;;;;6303569;28;20041;-67
2022/02/13 13:40:33;;;;;;;8.45;6.68;;;;;;;;;;6306595;28;20056;-66
2022/02/13 13:43:35;;;;;;;7.90;6.55;;;;;;;;;;6312054;28;20381;-65
2022/02/13 13:46:37;;;;;;;8.70;6.65;;;;;;;;;;6301473;28;20160;-67
2022/02/13 13:49:38;;;;;;;8.40;6.70;;;;;;;;;;6308946;28;20170;-67
2022/02/13 13:52:42;;;;;;;7.97;6.60;;;;;;;;;;6313983;28;20126;-64
2022/02/13 13:55:45;;;;;;;10.98;7.00;;;;;;;;;;6307253;28;20548;-65
2022/02/13 13:58:46;;;;;;;8.43;6.33;;;;;;;;;;6305877;28;20424;-65
2022/02/13 14:01:48;;;;;;;8.75;6.68;;;;;;;;;;6305027;28;20563;-66
2022/02/13 14:04:50;;;;;;;9.15;6.30;;;;;;;;;;6305224;28;20139;-67
2022/02/13 14:07:54;;;;;;;8.60;6.53;;;;;;;;;;6306889;28;20120;-63
2022/02/13 14:10:56;;;;;;;8.57;6.72;;;;;;;;;;6311676;28;20469;-66
2022/02/13 14:13:58;;;;;;;10.48;7.30;;;;;;;;;;6309974;28;20554;-66
2022/02/13 14:17:00;;;;;;;8.18;6.93;;;;;;;;;;6310689;28;20573;-66
2022/02/13 14:20:01;;;;;;;9.55;6.85;;;;;;;;;;6306492;28;20120;-66
2022/02/13 14:23:04;;;;;;;9.15;6.80;;;;;;;;;;6306966;28;20130;-66
2022/02/13 14:26:06;;;;;;;9.30;6.70;;;;;;;;;;6305477;28;20044;-66
2022/02/13 14:29:07;;;;;;;7.60;6.05;;;;;;;;;;6303027;28;20044;-66
2022/02/13 14:32:10;;;;;;;7.72;6.10;;;;;;;;;;6304500;28;20191;-66
2022/02/13 14:35:12;;;;;;;9.85;7.40;;;;;;;;;;6308903;28;20190;-63
2022/02/13 14:38:15;;;;;;;9.27;6.82;;;;;;;;;;6305479;28;20039;-66
2022/02/13 14:41:17;;;;;;;9.23;7.03;;;;;;;;;;6301599;28;20129;-66
2022/02/13 14:44:18;;;;;;;11.85;7.22;;;;;;;;;;6302100;28;20539;-63
2022/02/13 14:47:20;;;;;;;9.43;6.93;;;;;;;;;;6305097;28;23367;-64
2022/02/13 14:50:22;;;;;;;10.52;7.10;;;;;;;;;;6301397;28;20048;-65
2022/02/13 14:53:25;;;;;;;11.20;6.75;;;;;;;;;;6302718;28;20096;-65
2022/02/13 14:56:26;;;;;;;10.63;6.80;;;;;;;;;;6303575;28;20226;-65
2022/02/13 14:59:28;;;;;;;8.07;6.72;;;;;;;;;;6305293;28;20048;-64
2022/02/13 15:02:29;;;;;;;10.35;7.20;;;;;;;;;;6307825;28;20112;-64
2022/02/13 15:05:31;;;;;;;8.55;7.03;;;;;;;;;;6304377;28;20121;-65
2022/02/13 15:08:34;;;;;;;9.10;7.68;;;;;;;;;;6296730;28;20221;-66
2022/02/13 15:11:37;;;;;;;8.63;6.70;;;;;;;;;;6301559;28;20442;-65
2022/02/13 15:14:38;;;;;;;10.55;7.47;;;;;;;;;;6307463;28;20537;-64
2022/02/13 15:17:40;;;;;;;12.00;7.57;;;;;;;;;;6307103;28;20079;-65
2022/02/13 15:20:41;;;;;;;8.98;7.18;;;;;;;;;;6303929;28;20511;-66
2022/02/13 15:23:44;;;;;;;8.10;7.22;;;;;;;;;;6307579;28;20075;-65
2022/02/13 15:26:46;;;;;;;11.97;7.03;;;;;;;;;;6305055;28;20113;-65
2022/02/13 15:29:50;;;;;;;9.93;7.15;;;;;;;;;;6299223;28;20561;-64
2022/02/13 15:32:52;;;;;;;12.73;7.53;;;;;;;;;;6299192;28;20044;-64
2022/02/13 15:35:54;;;;;;;8.98;7.30;;;;;;;;;;6319908;28;20067;-64
2022/02/13 15:38:57;;;;;;;10.40;7.47;;;;;;;;;;6316517;28;20097;-65
2022/02/13 15:41:58;;;;;;;8.77;7.50;;;;;;;;;;6314093;28;20345;-65
2022/02/13 15:45:00;;;;;;;9.70;7.65;;;;;;;;;;6301587;28;20166;-66
2022/02/13 15:48:01;;;;;;;9.45;7.45;;;;;;;;;;6303162;28;20044;-66
2022/02/13 15:51:03;;;;;;;9.23;7.43;;;;;;;;;;6300320;28;20569;-66
2022/02/13 15:54:06;;;;;;;10.18;8.23;;;;;;;;;;6299498;28;20135;-64
2022/02/13 15:57:07;;;;;;;9.32;7.40;;;;;;;;;;6300589;28;20550;-65
2022/02/13 16:00:11;;;;;;;9.23;7.15;;;;;;;;;;6306648;28;20169;-65
2022/02/13 16:03:12;;;;;;;12.80;7.50;;;;;;;;;;6302387;28;20403;-65
2022/02/13 16:06:14;;;;;;;8.40;7.15;;;;;;;;;;6306618;28;20052;-65
2022/02/13 16:09:17;;;;;;;13.45;8.50;;;;;;;;;;6306825;28;20060;-65
2022/02/13 16:12:18;;;;;;;13.07;8.30;;;;;;;;;;6311382;28;20070;-65
2022/02/13 16:15:20;;;;;;;12.02;8.40;;;;;;;;;;6305741;28;20575;-66
2022/02/13 16:18:23;;;;;;;10.75;7.68;;;;;;;;;;6306273;28;20133;-65
2022/02/13 16:21:25;;;;;;;12.87;7.90;;;;;;;;;;6299106;28;20545;-65
2022/02/13 16:24:28;;;;;;;22.10;14.27;;;;;;;;;;6300288;28;20549;-66
2022/02/13 16:27:31;;;;;;;38.23;21.87;;;;;;;;;;6304879;28;20075;-66
2022/02/13 16:30:32;;;;;;;16.83;11.25;;;;;;;;;;6311399;28;20116;-63
2022/02/13 16:33:35;;;;;;;14.80;8.02;;;;;;;;;;6305546;28;20131;-65
2022/02/13 16:36:36;;;;;;;11.93;8.02;;;;;;;;;;6303526;28;20045;-66
2022/02/13 16:39:39;;;;;;;13.52;8.55;;;;;;;;;;6303439;28;20128;-65
2022/02/13 16:42:41;;;;;;;11.00;8.37;;;;;;;;;;6301887;28;20074;-67
2022/02/13 16:45:42;;;;;;;14.30;7.90;;;;;;;;;;6301199;28;20112;-65
2022/02/13 16:48:44;;;;;;;12.15;8.02;;;;;;;;;;6304302;28;20559;-65
2022/02/13 16:51:46;;;;;;;16.45;8.18;;;;;;;;;;6301094;28;20139;-65
2022/02/13 16:54:49;;;;;;;10.02;7.57;;;;;;;;;;6307336;28;20101;-66
2022/02/13 16:57:50;;;;;;;17.48;8.15;;;;;;;;;;6306525;28;20140;-65
2022/02/13 17:00:52;;;;;;;13.10;7.40;;;;;;;;;;6308368;28;20072;-65
2022/02/13 17:03:55;;;;;;;11.43;7.88;;;;;;;;;;6303041;28;20131;-65
2022/02/13 17:06:56;;;;;;;12.13;7.88;;;;;;;;;;6305961;28;20123;-67
2022/02/13 17:09:59;;;;;;;10.88;7.13;;;;;;;;;;6307824;28;20123;-67
2022/02/13 17:13:01;;;;;;;16.27;7.85;;;;;;;;;;6307264;28;20186;-68
2022/02/13 17:36:38;;;;;;;13.80;7.95;;;;;;;;;;6320313;27;20184;-66
2022/02/13 17:39:40;;;;;;;13.65;8.95;;;;;;;;;;6269202;28;20125;-66
2022/02/13 17:42:42;;;;;;;10.85;7.95;;;;;;;;;;6288956;28;20579;-66
2022/02/13 17:45:43;;;;;;;13.38;8.85;;;;;;;;;;6287181;28;20135;-66
2022/02/13 17:48:45;;;;;;;16.67;8.75;;;;;;;;;;6280163;28;20130;-66
2022/02/13 17:51:48;;;;;;;13.70;9.27;;;;;;;;;;6276905;28;20254;-66
2022/02/13 17:54:49;;;;;;;14.50;8.60;;;;;;;;;;6276585;28;20134;-66
2022/02/13 18:12:51;;;;;;;11.95;8.32;;;;;;;;;;6312808;27;20172;-68
2022/02/13 18:15:53;;;;;;;13.50;8.32;;;;;;;;;;6278780;28;20569;-66
2022/02/13 18:18:55;;;;;;;12.70;8.85;;;;;;;;;;6299236;27;20139;-67
2022/02/13 18:21:57;;;;;;;11.07;8.30;;;;;;;;;;6296329;28;20056;-67
2022/02/13 18:24:59;;;;;;;12.23;8.75;;;;;;;;;;6308486;28;20419;-68
2022/02/13 18:28:02;;;;;;;13.02;9.15;;;;;;;;;;6303719;28;20492;-67
2022/02/13 18:31:03;;;;;;;12.55;8.93;;;;;;;;;;6293585;27;20194;-67
2022/02/13 18:34:05;;;;;;;12.30;9.02;;;;;;;;;;6302404;28;20103;-67
2022/02/13 18:37:07;;;;;;;12.88;9.13;;;;;;;;;;6301844;28;20072;-67
2022/02/13 18:40:10;;;;;;;12.75;8.60;;;;;;;;;;6301198;28;20137;-67
2022/02/13 18:43:13;;;;;;;14.85;9.07;;;;;;;;;;6301009;28;20123;-66
2022/02/13 18:46:15;;;;;;;13.25;9.00;;;;;;;;;;6300510;28;20124;-67